sensor_id;sensor_type;location;lat;lon;timestamp;temperature;humidity
21891;DHT22;11110;52.386;16.940;2023-07-13T00:02:10;34.10;33.20
21891;DHT22;11110;52.386;16.940;2023-07-13T00:04:39;34.10;33.00
21891;DHT22;11110;52.386;16.940;2023-07-13T00:07:08;34.10;33.00
21891;DHT22;11110;52.386;16.940;2023-07-13T00:09:37;34.10;32.90
21891;DHT22;11110;52.386;16.940;2023-07-13T00:12:22;34.10;32.90
21891;DHT22;11110;52.386;16.940;2023-07-13T00:14:50;34.20;33.00
21891;DHT22;11110;52.386;16.940;2023-07-13T00:17:19;34.10;33.10
21891;DHT22;11110;52.386;16.940;2023-07-13T00:19:48;34.00;33.00
21891;DHT22;11110;52.386;16.940;2023-07-13T00:22:18;34.00;33.10
21891;DHT22;11110;52.386;16.940;2023-07-13T00:24:47;34.10;33.20
21891;DHT22;11110;52.386;16.940;2023-07-13T00:27:15;34.10;33.10
21891;DHT22;11110;52.386;16.940;2023-07-13T00:29:46;34.10;33.10
21891;DHT22;11110;52.386;16.940;2023-07-13T00:32:15;34.10;34.10
21891;DHT22;11110;52.386;16.940;2023-07-13T00:34:43;34.10;33.80
21891;DHT22;11110;52.386;16.940;2023-07-13T00:37:12;34.10;33.30
21891;DHT22;11110;52.386;16.940;2023-07-13T00:39:42;34.00;33.20
21891;DHT22;11110;52.386;16.940;2023-07-13T00:42:10;34.10;33.30
21891;DHT22;11110;52.386;16.940;2023-07-13T00:44:39;34.00;33.50
21891;DHT22;11110;52.386;16.940;2023-07-13T00:47:07;34.00;33.40
21891;DHT22;11110;52.386;16.940;2023-07-13T00:49:36;34.00;34.70
21891;DHT22;11110;52.386;16.940;2023-07-13T00:52:07;34.00;34.30
21891;DHT22;11110;52.386;16.940;2023-07-13T00:54:40;34.00;34.80
21891;DHT22;11110;52.386;16.940;2023-07-13T00:57:15;33.90;35.40
21891;DHT22;11110;52.386;16.940;2023-07-13T00:59:48;33.90;35.60
21891;DHT22;11110;52.386;16.940;2023-07-13T01:02:18;33.80;35.30
21891;DHT22;11110;52.386;16.940;2023-07-13T01:04:49;33.80;35.60
21891;DHT22;11110;52.386;16.940;2023-07-13T01:07:18;33.70;35.70
21891;DHT22;11110;52.386;16.940;2023-07-13T01:09:47;33.70;36.10
21891;DHT22;11110;52.386;16.940;2023-07-13T01:12:17;33.70;36.40
21891;DHT22;11110;52.386;16.940;2023-07-13T01:14:47;33.70;36.60
21891;DHT22;11110;52.386;16.940;2023-07-13T01:17:16;33.60;36.80
21891;DHT22;11110;52.386;16.940;2023-07-13T01:19:45;33.60;37.10
21891;DHT22;11110;52.386;16.940;2023-07-13T01:22:18;33.50;37.20
21891;DHT22;11110;52.386;16.940;2023-07-13T01:24:47;33.50;37.80
21891;DHT22;11110;52.386;16.940;2023-07-13T01:27:20;33.50;38.20
21891;DHT22;11110;52.386;16.940;2023-07-13T01:29:48;33.40;38.10
21891;DHT22;11110;52.386;16.940;2023-07-13T01:32:20;33.40;38.80
21891;DHT22;11110;52.386;16.940;2023-07-13T01:34:55;33.40;39.50
21891;DHT22;11110;52.386;16.940;2023-07-13T01:37:26;33.30;39.70
21891;DHT22;11110;52.386;16.940;2023-07-13T01:39:54;33.20;40.10
21891;DHT22;11110;52.386;16.940;2023-07-13T01:42:23;33.20;40.30
21891;DHT22;11110;52.386;16.940;2023-07-13T01:44:51;33.10;38.60
21891;DHT22;11110;52.386;16.940;2023-07-13T01:47:20;33.10;36.90
21891;DHT22;11110;52.386;16.940;2023-07-13T01:49:48;33.00;37.40
21891;DHT22;11110;52.386;16.940;2023-07-13T01:52:19;33.10;36.20
21891;DHT22;11110;52.386;16.940;2023-07-13T01:54:49;33.00;36.30
21891;DHT22;11110;52.386;16.940;2023-07-13T01:57:17;33.00;35.90
21891;DHT22;11110;52.386;16.940;2023-07-13T01:59:46;32.90;36.20
21891;DHT22;11110;52.386;16.940;2023-07-13T02:02:14;32.80;36.20
21891;DHT22;11110;52.386;16.940;2023-07-13T02:04:43;32.80;36.00
21891;DHT22;11110;52.386;16.940;2023-07-13T02:07:12;32.70;36.00
21891;DHT22;11110;52.386;16.940;2023-07-13T02:09:42;32.70;36.10
21891;DHT22;11110;52.386;16.940;2023-07-13T02:12:12;32.70;36.50
21891;DHT22;11110;52.386;16.940;2023-07-13T02:14:40;32.60;36.30
21891;DHT22;11110;52.386;16.940;2023-07-13T02:17:09;32.60;36.60
21891;DHT22;11110;52.386;16.940;2023-07-13T02:19:38;32.60;37.90
21891;DHT22;11110;52.386;16.940;2023-07-13T02:22:07;32.60;37.00
21891;DHT22;11110;52.386;16.940;2023-07-13T02:24:36;32.60;37.10
21891;DHT22;11110;52.386;16.940;2023-07-13T02:27:05;32.60;37.60
21891;DHT22;11110;52.386;16.940;2023-07-13T02:29:35;32.60;37.20
21891;DHT22;11110;52.386;16.940;2023-07-13T02:32:04;32.60;37.30
21891;DHT22;11110;52.386;16.940;2023-07-13T02:34:34;32.60;37.60
21891;DHT22;11110;52.386;16.940;2023-07-13T02:37:04;32.60;37.50
21891;DHT22;11110;52.386;16.940;2023-07-13T02:39:34;32.60;37.70
21891;DHT22;11110;52.386;16.940;2023-07-13T02:42:03;32.60;39.20
21891;DHT22;11110;52.386;16.940;2023-07-13T02:44:33;32.60;40.30
21891;DHT22;11110;52.386;16.940;2023-07-13T02:47:02;32.50;40.60
21891;DHT22;11110;52.386;16.940;2023-07-13T02:49:31;32.50;38.70
21891;DHT22;11110;52.386;16.940;2023-07-13T02:52:00;32.50;38.60
21891;DHT22;11110;52.386;16.940;2023-07-13T02:54:29;32.50;39.10
21891;DHT22;11110;52.386;16.940;2023-07-13T02:56:57;32.50;40.00
21891;DHT22;11110;52.386;16.940;2023-07-13T02:59:26;32.50;39.40
21891;DHT22;11110;52.386;16.940;2023-07-13T03:01:54;32.40;39.60
21891;DHT22;11110;52.386;16.940;2023-07-13T03:04:24;32.40;39.50
21891;DHT22;11110;52.386;16.940;2023-07-13T03:06:53;32.40;39.70
21891;DHT22;11110;52.386;16.940;2023-07-13T03:09:29;32.40;40.00
21891;DHT22;11110;52.386;16.940;2023-07-13T03:11:59;32.40;40.40
21891;DHT22;11110;52.386;16.940;2023-07-13T03:14:30;32.30;41.00
21891;DHT22;11110;52.386;16.940;2023-07-13T03:17:00;32.30;41.30
21891;DHT22;11110;52.386;16.940;2023-07-13T03:19:33;32.20;41.30
21891;DHT22;11110;52.386;16.940;2023-07-13T03:22:03;32.20;41.20
21891;DHT22;11110;52.386;16.940;2023-07-13T03:24:34;32.30;41.70
21891;DHT22;11110;52.386;16.940;2023-07-13T03:27:06;32.30;42.00
21891;DHT22;11110;52.386;16.940;2023-07-13T03:29:38;32.30;42.00
21891;DHT22;11110;52.386;16.940;2023-07-13T03:32:07;32.20;42.10
21891;DHT22;11110;52.386;16.940;2023-07-13T03:34:37;32.10;42.00
21891;DHT22;11110;52.386;16.940;2023-07-13T03:37:06;32.10;42.30
21891;DHT22;11110;52.386;16.940;2023-07-13T03:39:36;32.10;42.60
21891;DHT22;11110;52.386;16.940;2023-07-13T03:42:06;32.10;42.70
21891;DHT22;11110;52.386;16.940;2023-07-13T03:44:35;32.10;42.60
21891;DHT22;11110;52.386;16.940;2023-07-13T03:47:04;32.20;42.80
21891;DHT22;11110;52.386;16.940;2023-07-13T03:49:37;32.20;43.00
21891;DHT22;11110;52.386;16.940;2023-07-13T03:52:06;32.30;43.20
21891;DHT22;11110;52.386;16.940;2023-07-13T03:54:35;32.30;43.30
21891;DHT22;11110;52.386;16.940;2023-07-13T03:57:04;32.30;43.20
21891;DHT22;11110;52.386;16.940;2023-07-13T03:59:35;32.40;43.30
21891;DHT22;11110;52.386;16.940;2023-07-13T04:02:04;32.40;43.40
21891;DHT22;11110;52.386;16.940;2023-07-13T04:04:34;32.40;43.30
21891;DHT22;11110;52.386;16.940;2023-07-13T04:07:04;32.40;43.40
21891;DHT22;11110;52.386;16.940;2023-07-13T04:09:33;32.50;43.60
21891;DHT22;11110;52.386;16.940;2023-07-13T04:12:03;32.40;43.40
21891;DHT22;11110;52.386;16.940;2023-07-13T04:14:32;32.30;43.70
21891;DHT22;11110;52.386;16.940;2023-07-13T04:17:00;32.30;44.10
21891;DHT22;11110;52.386;16.940;2023-07-13T04:19:29;32.20;44.30
21891;DHT22;11110;52.386;16.940;2023-07-13T04:21:57;32.20;44.80
21891;DHT22;11110;52.386;16.940;2023-07-13T04:24:27;32.20;44.50
21891;DHT22;11110;52.386;16.940;2023-07-13T04:26:56;32.20;45.10
21891;DHT22;11110;52.386;16.940;2023-07-13T04:29:27;32.20;45.20
21891;DHT22;11110;52.386;16.940;2023-07-13T04:31:55;32.20;45.50
21891;DHT22;11110;52.386;16.940;2023-07-13T04:34:24;32.20;45.80
21891;DHT22;11110;52.386;16.940;2023-07-13T04:36:53;32.20;45.80
21891;DHT22;11110;52.386;16.940;2023-07-13T04:39:22;32.20;45.80
21891;DHT22;11110;52.386;16.940;2023-07-13T04:41:51;32.30;45.60
21891;DHT22;11110;52.386;16.940;2023-07-13T04:44:20;32.30;45.60
21891;DHT22;11110;52.386;16.940;2023-07-13T04:46:48;32.40;45.80
21891;DHT22;11110;52.386;16.940;2023-07-13T04:49:17;32.40;45.50
21891;DHT22;11110;52.386;16.940;2023-07-13T04:51:45;32.40;45.30
21891;DHT22;11110;52.386;16.940;2023-07-13T04:54:14;32.40;45.40
21891;DHT22;11110;52.386;16.940;2023-07-13T04:56:43;32.50;45.30
21891;DHT22;11110;52.386;16.940;2023-07-13T04:59:13;32.50;45.60
21891;DHT22;11110;52.386;16.940;2023-07-13T05:01:41;32.60;45.60
21891;DHT22;11110;52.386;16.940;2023-07-13T05:04:10;32.60;45.60
21891;DHT22;11110;52.386;16.940;2023-07-13T05:06:38;32.70;45.60
21891;DHT22;11110;52.386;16.940;2023-07-13T05:09:07;32.70;45.70
21891;DHT22;11110;52.386;16.940;2023-07-13T05:11:36;32.70;45.70
21891;DHT22;11110;52.386;16.940;2023-07-13T05:14:05;32.70;45.70
21891;DHT22;11110;52.386;16.940;2023-07-13T05:16:35;32.70;45.30
21891;DHT22;11110;52.386;16.940;2023-07-13T05:19:04;32.70;45.50
21891;DHT22;11110;52.386;16.940;2023-07-13T05:21:32;32.70;45.70
21891;DHT22;11110;52.386;16.940;2023-07-13T05:24:01;32.70;45.70
21891;DHT22;11110;52.386;16.940;2023-07-13T05:26:49;32.80;45.60
21891;DHT22;11110;52.386;16.940;2023-07-13T05:29:18;32.70;46.10
21891;DHT22;11110;52.386;16.940;2023-07-13T05:31:49;32.80;45.60
21891;DHT22;11110;52.386;16.940;2023-07-13T05:34:18;32.80;45.60
21891;DHT22;11110;52.386;16.940;2023-07-13T05:36:46;32.80;45.50
21891;DHT22;11110;52.386;16.940;2023-07-13T05:39:16;32.70;45.30
21891;DHT22;11110;52.386;16.940;2023-07-13T05:41:44;32.70;45.70
21891;DHT22;11110;52.386;16.940;2023-07-13T05:44:13;32.70;45.30
21891;DHT22;11110;52.386;16.940;2023-07-13T05:46:41;32.70;45.70
21891;DHT22;11110;52.386;16.940;2023-07-13T05:49:11;32.70;45.70
21891;DHT22;11110;52.386;16.940;2023-07-13T05:51:40;32.80;46.10
21891;DHT22;11110;52.386;16.940;2023-07-13T05:54:09;32.80;46.20
21891;DHT22;11110;52.386;16.940;2023-07-13T05:56:37;32.80;46.10
21891;DHT22;11110;52.386;16.940;2023-07-13T05:59:06;32.80;46.00
21891;DHT22;11110;52.386;16.940;2023-07-13T06:01:34;32.80;45.90
21891;DHT22;11110;52.386;16.940;2023-07-13T06:04:04;32.80;45.80
21891;DHT22;11110;52.386;16.940;2023-07-13T06:06:33;32.80;45.50
21891;DHT22;11110;52.386;16.940;2023-07-13T06:09:02;32.80;45.60
21891;DHT22;11110;52.386;16.940;2023-07-13T06:11:31;32.90;45.90
21891;DHT22;11110;52.386;16.940;2023-07-13T06:14:00;32.90;46.20
21891;DHT22;11110;52.386;16.940;2023-07-13T06:16:28;32.90;45.80
21891;DHT22;11110;52.386;16.940;2023-07-13T06:18:57;32.90;46.00
21891;DHT22;11110;52.386;16.940;2023-07-13T06:21:26;32.90;46.20
21891;DHT22;11110;52.386;16.940;2023-07-13T06:23:56;32.90;46.50
21891;DHT22;11110;52.386;16.940;2023-07-13T06:26:24;33.00;46.90
21891;DHT22;11110;52.386;16.940;2023-07-13T06:28:53;32.90;46.60
21891;DHT22;11110;52.386;16.940;2023-07-13T06:31:21;33.00;46.40
21891;DHT22;11110;52.386;16.940;2023-07-13T06:33:50;33.00;46.50
21891;DHT22;11110;52.386;16.940;2023-07-13T06:36:18;33.00;46.70
21891;DHT22;11110;52.386;16.940;2023-07-13T06:38:47;33.00;47.20
21891;DHT22;11110;52.386;16.940;2023-07-13T06:41:17;33.10;47.20
21891;DHT22;11110;52.386;16.940;2023-07-13T06:43:45;33.10;47.30
21891;DHT22;11110;52.386;16.940;2023-07-13T06:46:14;33.10;46.90
21891;DHT22;11110;52.386;16.940;2023-07-13T06:48:43;33.10;46.80
21891;DHT22;11110;52.386;16.940;2023-07-13T06:51:11;33.20;46.60
21891;DHT22;11110;52.386;16.940;2023-07-13T06:53:40;33.20;46.10
21891;DHT22;11110;52.386;16.940;2023-07-13T06:56:10;33.20;45.90
21891;DHT22;11110;52.386;16.940;2023-07-13T06:58:40;33.30;45.70
21891;DHT22;11110;52.386;16.940;2023-07-13T07:01:09;33.30;45.40
21891;DHT22;11110;52.386;16.940;2023-07-13T07:03:38;33.30;45.30
21891;DHT22;11110;52.386;16.940;2023-07-13T07:06:13;33.30;45.40
21891;DHT22;11110;52.386;16.940;2023-07-13T07:08:43;33.40;45.20
21891;DHT22;11110;52.386;16.940;2023-07-13T07:11:16;33.40;45.30
21891;DHT22;11110;52.386;16.940;2023-07-13T07:13:47;33.40;45.40
21891;DHT22;11110;52.386;16.940;2023-07-13T07:16:16;33.40;45.40
21891;DHT22;11110;52.386;16.940;2023-07-13T07:18:46;33.40;45.30
21891;DHT22;11110;52.386;16.940;2023-07-13T07:21:15;33.50;45.10
21891;DHT22;11110;52.386;16.940;2023-07-13T07:23:43;33.50;45.20
21891;DHT22;11110;52.386;16.940;2023-07-13T07:26:12;33.50;45.20
21891;DHT22;11110;52.386;16.940;2023-07-13T07:28:40;33.50;45.00
21891;DHT22;11110;52.386;16.940;2023-07-13T07:31:15;33.50;45.10
21891;DHT22;11110;52.386;16.940;2023-07-13T07:33:47;33.60;45.20
21891;DHT22;11110;52.386;16.940;2023-07-13T07:36:17;33.60;45.10
21891;DHT22;11110;52.386;16.940;2023-07-13T07:38:48;33.60;45.10
21891;DHT22;11110;52.386;16.940;2023-07-13T07:41:17;33.70;45.20
21891;DHT22;11110;52.386;16.940;2023-07-13T07:43:48;33.70;45.00
21891;DHT22;11110;52.386;16.940;2023-07-13T07:46:18;33.70;45.30
21891;DHT22;11110;52.386;16.940;2023-07-13T07:48:47;33.70;44.20
21891;DHT22;11110;52.386;16.940;2023-07-13T07:51:15;33.80;44.90
21891;DHT22;11110;52.386;16.940;2023-07-13T07:53:44;33.80;45.10
21891;DHT22;11110;52.386;16.940;2023-07-13T07:56:12;33.80;44.60
21891;DHT22;11110;52.386;16.940;2023-07-13T07:58:46;33.80;44.70
21891;DHT22;11110;52.386;16.940;2023-07-13T08:01:18;33.80;44.60
21891;DHT22;11110;52.386;16.940;2023-07-13T08:03:50;33.90;44.70
21891;DHT22;11110;52.386;16.940;2023-07-13T08:06:22;33.90;44.30
21891;DHT22;11110;52.386;16.940;2023-07-13T08:08:53;33.90;44.10
21891;DHT22;11110;52.386;16.940;2023-07-13T08:11:22;33.90;43.40
21891;DHT22;11110;52.386;16.940;2023-07-13T08:13:54;33.90;43.00
21891;DHT22;11110;52.386;16.940;2023-07-13T08:16:24;33.90;42.50
21891;DHT22;11110;52.386;16.940;2023-07-13T08:18:53;33.90;42.20
21891;DHT22;11110;52.386;16.940;2023-07-13T08:21:22;33.90;42.90
21891;DHT22;11110;52.386;16.940;2023-07-13T08:23:50;33.80;42.80
21891;DHT22;11110;52.386;16.940;2023-07-13T08:26:19;33.80;42.80
21891;DHT22;11110;52.386;16.940;2023-07-13T08:28:47;33.90;43.00
21891;DHT22;11110;52.386;16.940;2023-07-13T08:31:16;33.90;42.80
21891;DHT22;11110;52.386;16.940;2023-07-13T08:33:46;33.90;42.40
21891;DHT22;11110;52.386;16.940;2023-07-13T08:36:14;34.00;42.00
21891;DHT22;11110;52.386;16.940;2023-07-13T08:38:43;34.00;42.20
21891;DHT22;11110;52.386;16.940;2023-07-13T08:41:13;34.10;41.80
21891;DHT22;11110;52.386;16.940;2023-07-13T08:43:46;34.20;42.10
21891;DHT22;11110;52.386;16.940;2023-07-13T08:46:19;34.30;42.00
21891;DHT22;11110;52.386;16.940;2023-07-13T08:48:52;34.40;42.00
21891;DHT22;11110;52.386;16.940;2023-07-13T08:51:33;34.40;41.90
21891;DHT22;11110;52.386;16.940;2023-07-13T08:54:05;34.50;41.40
21891;DHT22;11110;52.386;16.940;2023-07-13T08:56:36;34.50;41.20
21891;DHT22;11110;52.386;16.940;2023-07-13T08:59:09;34.50;41.30
21891;DHT22;11110;52.386;16.940;2023-07-13T09:01:53;34.50;41.50
21891;DHT22;11110;52.386;16.940;2023-07-13T09:04:28;34.60;41.00
21891;DHT22;11110;52.386;16.940;2023-07-13T09:07:04;34.60;41.00
21891;DHT22;11110;52.386;16.940;2023-07-13T09:09:44;34.60;41.30
21891;DHT22;11110;52.386;16.940;2023-07-13T09:12:19;34.70;41.00
21891;DHT22;11110;52.386;16.940;2023-07-13T09:14:54;34.70;41.90
21891;DHT22;11110;52.386;16.940;2023-07-13T09:17:26;34.70;42.20
21891;DHT22;11110;52.386;16.940;2023-07-13T09:20:04;34.70;42.10
21891;DHT22;11110;52.386;16.940;2023-07-13T09:22:36;34.80;42.00
21891;DHT22;11110;52.386;16.940;2023-07-13T09:25:18;34.80;42.50
21891;DHT22;11110;52.386;16.940;2023-07-13T09:27:52;35.00;41.70
21891;DHT22;11110;52.386;16.940;2023-07-13T09:30:26;34.90;41.30
21891;DHT22;11110;52.386;16.940;2023-07-13T09:32:57;35.00;40.90
21891;DHT22;11110;52.386;16.940;2023-07-13T09:35:29;35.00;41.20
21891;DHT22;11110;52.386;16.940;2023-07-13T09:37:59;35.10;41.40
21891;DHT22;11110;52.386;16.940;2023-07-13T09:40:49;35.10;41.50
21891;DHT22;11110;52.386;16.940;2023-07-13T09:43:21;35.20;41.50
21891;DHT22;11110;52.386;16.940;2023-07-13T09:45:50;35.20;42.40
21891;DHT22;11110;52.386;16.940;2023-07-13T09:48:18;35.20;42.00
21891;DHT22;11110;52.386;16.940;2023-07-13T09:50:49;35.20;42.00
21891;DHT22;11110;52.386;16.940;2023-07-13T09:53:22;35.30;42.10
21891;DHT22;11110;52.386;16.940;2023-07-13T09:55:51;35.20;41.20
21891;DHT22;11110;52.386;16.940;2023-07-13T09:58:22;35.30;40.90
21891;DHT22;11110;52.386;16.940;2023-07-13T10:00:56;35.30;40.80
21891;DHT22;11110;52.386;16.940;2023-07-13T10:03:26;35.40;40.50
21891;DHT22;11110;52.386;16.940;2023-07-13T10:06:09;35.40;40.60
21891;DHT22;11110;52.386;16.940;2023-07-13T10:08:38;35.40;40.90
21891;DHT22;11110;52.386;16.940;2023-07-13T10:11:12;35.30;40.90
21891;DHT22;11110;52.386;16.940;2023-07-13T10:13:55;35.40;41.00
21891;DHT22;11110;52.386;16.940;2023-07-13T10:16:25;35.50;41.00
21891;DHT22;11110;52.386;16.940;2023-07-13T10:18:57;35.50;40.70
21891;DHT22;11110;52.386;16.940;2023-07-13T10:21:33;35.50;41.10
21891;DHT22;11110;52.386;16.940;2023-07-13T10:24:10;35.60;40.40
21891;DHT22;11110;52.386;16.940;2023-07-13T10:26:46;35.70;39.30
21891;DHT22;11110;52.386;16.940;2023-07-13T10:29:16;35.80;39.50
21891;DHT22;11110;52.386;16.940;2023-07-13T10:31:46;35.80;39.20
21891;DHT22;11110;52.386;16.940;2023-07-13T10:34:14;35.80;38.90
21891;DHT22;11110;52.386;16.940;2023-07-13T10:36:46;35.80;38.60
21891;DHT22;11110;52.386;16.940;2023-07-13T10:39:18;35.80;38.40
21891;DHT22;11110;52.386;16.940;2023-07-13T10:41:50;35.90;37.80
21891;DHT22;11110;52.386;16.940;2023-07-13T10:44:24;35.90;37.90
21891;DHT22;11110;52.386;16.940;2023-07-13T10:46:58;36.00;37.90
21891;DHT22;11110;52.386;16.940;2023-07-13T10:49:29;36.00;38.20
21891;DHT22;11110;52.386;16.940;2023-07-13T10:52:00;36.00;37.80
21891;DHT22;11110;52.386;16.940;2023-07-13T10:54:31;36.00;37.60
21891;DHT22;11110;52.386;16.940;2023-07-13T10:57:20;36.10;37.80
21891;DHT22;11110;52.386;16.940;2023-07-13T11:02:37;36.10;38.20
21891;DHT22;11110;52.386;16.940;2023-07-13T11:05:22;36.10;38.10
21891;DHT22;11110;52.386;16.940;2023-07-13T11:08:03;36.20;37.80
21891;DHT22;11110;52.386;16.940;2023-07-13T11:10:48;36.30;38.30
21891;DHT22;11110;52.386;16.940;2023-07-13T11:13:38;36.30;37.90
21891;DHT22;11110;52.386;16.940;2023-07-13T11:16:44;36.30;37.90
21891;DHT22;11110;52.386;16.940;2023-07-13T11:19:41;36.40;37.70
21891;DHT22;11110;52.386;16.940;2023-07-13T11:22:21;36.40;37.90
21891;DHT22;11110;52.386;16.940;2023-07-13T11:24:57;36.40;38.70
21891;DHT22;11110;52.386;16.940;2023-07-13T11:27:39;36.40;37.80
21891;DHT22;11110;52.386;16.940;2023-07-13T11:30:23;36.50;36.50
21891;DHT22;11110;52.386;16.940;2023-07-13T11:33:09;36.50;36.00
21891;DHT22;11110;52.386;16.940;2023-07-13T11:35:45;36.50;36.00
21891;DHT22;11110;52.386;16.940;2023-07-13T11:38:20;36.60;34.90
21891;DHT22;11110;52.386;16.940;2023-07-13T11:40:54;36.50;34.20
21891;DHT22;11110;52.386;16.940;2023-07-13T11:43:23;36.50;34.70
21891;DHT22;11110;52.386;16.940;2023-07-13T11:45:53;36.40;34.30
21891;DHT22;11110;52.386;16.940;2023-07-13T11:48:24;36.50;34.40
21891;DHT22;11110;52.386;16.940;2023-07-13T11:51:02;36.40;34.50
21891;DHT22;11110;52.386;16.940;2023-07-13T11:53:38;36.50;34.50
21891;DHT22;11110;52.386;16.940;2023-07-13T11:56:09;36.40;34.50
21891;DHT22;11110;52.386;16.940;2023-07-13T11:58:38;36.50;34.80
21891;DHT22;11110;52.386;16.940;2023-07-13T12:01:10;36.50;34.50
21891;DHT22;11110;52.386;16.940;2023-07-13T12:03:43;36.50;34.00
21891;DHT22;11110;52.386;16.940;2023-07-13T12:06:25;36.50;34.20
21891;DHT22;11110;52.386;16.940;2023-07-13T12:08:58;36.50;32.30
21891;DHT22;11110;52.386;16.940;2023-07-13T12:11:30;36.60;30.70
21891;DHT22;11110;52.386;16.940;2023-07-13T12:14:00;36.60;30.40
21891;DHT22;11110;52.386;16.940;2023-07-13T12:16:30;36.60;30.00
21891;DHT22;11110;52.386;16.940;2023-07-13T12:19:01;36.50;30.20
21891;DHT22;11110;52.386;16.940;2023-07-13T12:21:33;36.60;29.70
21891;DHT22;11110;52.386;16.940;2023-07-13T12:24:03;36.60;30.40
21891;DHT22;11110;52.386;16.940;2023-07-13T12:26:34;36.70;30.50
21891;DHT22;11110;52.386;16.940;2023-07-13T12:29:05;36.90;29.90
21891;DHT22;11110;52.386;16.940;2023-07-13T12:31:37;37.00;29.90
21891;DHT22;11110;52.386;16.940;2023-07-13T12:34:10;37.00;29.00
21891;DHT22;11110;52.386;16.940;2023-07-13T12:36:45;37.00;29.00
21891;DHT22;11110;52.386;16.940;2023-07-13T12:39:17;36.90;29.90
21891;DHT22;11110;52.386;16.940;2023-07-13T12:41:49;37.00;29.00
21891;DHT22;11110;52.386;16.940;2023-07-13T12:44:25;36.90;28.50
21891;DHT22;11110;52.386;16.940;2023-07-13T12:46:58;36.80;28.70
21891;DHT22;11110;52.386;16.940;2023-07-13T12:49:29;36.80;28.80
21891;DHT22;11110;52.386;16.940;2023-07-13T12:52:02;36.90;28.00
21891;DHT22;11110;52.386;16.940;2023-07-13T12:54:31;37.00;27.30
21891;DHT22;11110;52.386;16.940;2023-07-13T12:57:01;36.90;27.80
21891;DHT22;11110;52.386;16.940;2023-07-13T12:59:32;37.00;27.90
21891;DHT22;11110;52.386;16.940;2023-07-13T13:02:23;37.10;27.40
21891;DHT22;11110;52.386;16.940;2023-07-13T13:04:56;37.10;27.40
21891;DHT22;11110;52.386;16.940;2023-07-13T13:07:26;37.20;27.10
21891;DHT22;11110;52.386;16.940;2023-07-13T13:09:54;37.20;27.40
21891;DHT22;11110;52.386;16.940;2023-07-13T13:12:24;37.30;27.70
21891;DHT22;11110;52.386;16.940;2023-07-13T13:14:53;37.30;28.10
21891;DHT22;11110;52.386;16.940;2023-07-13T13:17:30;37.50;27.20
21891;DHT22;11110;52.386;16.940;2023-07-13T13:19:59;37.50;27.00
21891;DHT22;11110;52.386;16.940;2023-07-13T13:22:28;37.40;26.80
21891;DHT22;11110;52.386;16.940;2023-07-13T13:24:56;37.50;27.20
21891;DHT22;11110;52.386;16.940;2023-07-13T13:27:27;37.70;26.70
21891;DHT22;11110;52.386;16.940;2023-07-13T13:29:59;37.70;27.00
21891;DHT22;11110;52.386;16.940;2023-07-13T13:32:28;37.90;26.30
21891;DHT22;11110;52.386;16.940;2023-07-13T13:34:57;38.00;25.40
21891;DHT22;11110;52.386;16.940;2023-07-13T13:37:26;38.00;25.40
21891;DHT22;11110;52.386;16.940;2023-07-13T13:39:54;38.00;25.70
21891;DHT22;11110;52.386;16.940;2023-07-13T13:42:37;38.00;25.70
21891;DHT22;11110;52.386;16.940;2023-07-13T13:45:07;38.00;26.00
21891;DHT22;11110;52.386;16.940;2023-07-13T13:47:37;38.20;25.50
21891;DHT22;11110;52.386;16.940;2023-07-13T13:50:13;38.30;25.40
21891;DHT22;11110;52.386;16.940;2023-07-13T13:52:44;38.20;26.00
21891;DHT22;11110;52.386;16.940;2023-07-13T13:55:14;38.30;25.60
21891;DHT22;11110;52.386;16.940;2023-07-13T13:57:45;38.30;25.60
21891;DHT22;11110;52.386;16.940;2023-07-13T14:00:15;38.50;25.10
21891;DHT22;11110;52.386;16.940;2023-07-13T14:02:46;38.60;25.10
21891;DHT22;11110;52.386;16.940;2023-07-13T14:05:20;38.60;25.30
21891;DHT22;11110;52.386;16.940;2023-07-13T14:07:50;38.60;25.40
21891;DHT22;11110;52.386;16.940;2023-07-13T14:10:20;38.70;24.80
21891;DHT22;11110;52.386;16.940;2023-07-13T14:12:54;38.60;24.60
21891;DHT22;11110;52.386;16.940;2023-07-13T14:15:26;38.70;24.80
21891;DHT22;11110;52.386;16.940;2023-07-13T14:17:55;38.70;24.70
21891;DHT22;11110;52.386;16.940;2023-07-13T14:20:25;38.60;24.90
21891;DHT22;11110;52.386;16.940;2023-07-13T14:22:54;38.70;25.20
21891;DHT22;11110;52.386;16.940;2023-07-13T14:25:23;38.70;25.10
21891;DHT22;11110;52.386;16.940;2023-07-13T14:27:58;38.60;25.70
21891;DHT22;11110;52.386;16.940;2023-07-13T14:30:28;38.70;25.50
21891;DHT22;11110;52.386;16.940;2023-07-13T14:32:56;38.80;25.40
21891;DHT22;11110;52.386;16.940;2023-07-13T14:35:25;38.80;24.70
21891;DHT22;11110;52.386;16.940;2023-07-13T14:37:55;38.90;24.70
21891;DHT22;11110;52.386;16.940;2023-07-13T14:40:28;39.00;24.80
21891;DHT22;11110;52.386;16.940;2023-07-13T14:42:58;39.00;24.30
21891;DHT22;11110;52.386;16.940;2023-07-13T14:45:28;39.00;23.90
21891;DHT22;11110;52.386;16.940;2023-07-13T14:47:57;39.10;23.80
21891;DHT22;11110;52.386;16.940;2023-07-13T14:50:30;39.10;24.40
21891;DHT22;11110;52.386;16.940;2023-07-13T14:53:00;39.00;24.80
21891;DHT22;11110;52.386;16.940;2023-07-13T14:55:28;38.90;24.90
21891;DHT22;11110;52.386;16.940;2023-07-13T14:57:58;38.80;25.30
21891;DHT22;11110;52.386;16.940;2023-07-13T15:00:26;38.80;25.50
21891;DHT22;11110;52.386;16.940;2023-07-13T15:02:57;38.80;25.50
21891;DHT22;11110;52.386;16.940;2023-07-13T15:05:30;38.90;25.20
21891;DHT22;11110;52.386;16.940;2023-07-13T15:08:01;38.90;25.70
21891;DHT22;11110;52.386;16.940;2023-07-13T15:10:32;39.10;24.90
21891;DHT22;11110;52.386;16.940;2023-07-13T15:13:14;39.00;25.30
21891;DHT22;11110;52.386;16.940;2023-07-13T15:15:45;39.20;25.30
21891;DHT22;11110;52.386;16.940;2023-07-13T15:18:16;39.10;25.10
21891;DHT22;11110;52.386;16.940;2023-07-13T15:20:45;39.30;25.10
21891;DHT22;11110;52.386;16.940;2023-07-13T15:23:16;39.30;25.60
21891;DHT22;11110;52.386;16.940;2023-07-13T15:25:45;39.40;24.90
21891;DHT22;11110;52.386;16.940;2023-07-13T15:28:15;39.70;25.00
21891;DHT22;11110;52.386;16.940;2023-07-13T15:30:46;39.90;24.70
21891;DHT22;11110;52.386;16.940;2023-07-13T15:33:19;39.90;24.30
21891;DHT22;11110;52.386;16.940;2023-07-13T15:35:49;40.10;24.00
21891;DHT22;11110;52.386;16.940;2023-07-13T15:38:20;40.10;23.70
21891;DHT22;11110;52.386;16.940;2023-07-13T15:40:50;40.00;24.00
21891;DHT22;11110;52.386;16.940;2023-07-13T15:43:20;40.00;24.10